createdAt,value
2019-04-30T00:01:55.864Z,12.00
2019-04-30T00:04:37.242Z,11.90
2019-04-30T00:07:15.559Z,11.90
2019-04-30T00:09:49.210Z,12.00
2019-04-30T00:12:25.727Z,11.90
2019-04-30T00:15:01.453Z,11.90
2019-04-30T00:17:38.444Z,11.90
2019-04-30T00:20:15.149Z,11.90
2019-04-30T00:22:51.062Z,11.90
2019-04-30T00:25:28.556Z,11.90
2019-04-30T00:28:05.281Z,11.90
2019-04-30T00:30:43.888Z,11.90
2019-04-30T00:33:22.152Z,11.90
2019-04-30T00:35:57.931Z,11.90
2019-04-30T00:38:34.258Z,12.00
2019-04-30T00:41:10.919Z,12.00
2019-04-30T00:43:49.345Z,12.00
2019-04-30T00:46:25.479Z,11.90
2019-04-30T00:49:09.022Z,11.90
2019-04-30T00:51:37.605Z,11.80
2019-04-30T00:54:13.076Z,11.80
2019-04-30T00:56:48.471Z,11.90
2019-04-30T00:59:25.014Z,11.80
2019-04-30T01:02:32.259Z,11.80
2019-04-30T01:05:12.418Z,11.80
2019-04-30T01:07:51.560Z,11.70
2019-04-30T01:10:28.305Z,11.70
2019-04-30T01:13:08.043Z,11.70
2019-04-30T01:15:39.102Z,11.70
2019-04-30T01:18:14.552Z,11.70
2019-04-30T01:20:49.905Z,11.60
2019-04-30T01:23:25.404Z,11.60
2019-04-30T01:26:01.376Z,11.50
2019-04-30T01:28:38.602Z,11.60
2019-04-30T01:31:14.085Z,11.50
2019-04-30T01:33:49.570Z,11.50
2019-04-30T01:36:25.044Z,11.50
2019-04-30T01:39:00.465Z,11.50
2019-04-30T01:41:35.856Z,11.50
2019-04-30T01:44:12.148Z,11.50
2019-04-30T01:46:51.709Z,11.40
2019-04-30T01:49:26.738Z,11.50
2019-04-30T01:52:02.681Z,11.50
2019-04-30T01:54:39.108Z,11.40
2019-04-30T01:57:35.071Z,11.50
2019-04-30T02:00:20.892Z,11.40
2019-04-30T02:02:56.245Z,11.50
2019-04-30T02:05:31.649Z,11.40
2019-04-30T02:08:09.768Z,11.40
2019-04-30T02:10:45.299Z,11.40
2019-04-30T02:13:20.673Z,11.40
2019-04-30T02:15:56.128Z,11.40
2019-04-30T02:18:31.518Z,11.40
2019-04-30T02:21:06.923Z,11.40
2019-04-30T02:23:45.275Z,11.50
2019-04-30T02:26:20.771Z,11.50
2019-04-30T02:28:56.132Z,11.50
2019-04-30T02:31:31.568Z,11.50
2019-04-30T02:34:34.627Z,11.50
2019-04-30T02:37:16.684Z,11.50
2019-04-30T02:39:52.059Z,11.50
2019-04-30T02:42:29.760Z,11.40
2019-04-30T02:45:05.966Z,11.40
2019-04-30T02:47:41.395Z,11.40
2019-04-30T02:50:19.831Z,11.40
2019-04-30T02:52:55.092Z,11.40
2019-04-30T02:55:43.790Z,11.40
2019-04-30T02:58:21.074Z,11.40
2019-04-30T03:00:56.294Z,11.40
2019-04-30T03:03:31.749Z,11.40
2019-04-30T03:06:07.128Z,11.40
2019-04-30T03:08:42.591Z,11.40
2019-04-30T03:11:26.799Z,11.40
2019-04-30T03:14:02.181Z,11.40
2019-04-30T03:16:52.322Z,11.40
2019-04-30T03:19:31.449Z,11.40
2019-04-30T03:22:13.881Z,11.40
2019-04-30T03:24:50.057Z,11.30
2019-04-30T03:27:26.698Z,11.30
2019-04-30T03:30:02.121Z,11.30
2019-04-30T03:32:43.135Z,11.30
2019-04-30T03:35:15.722Z,11.30
2019-04-30T03:37:51.100Z,11.30
2019-04-30T03:40:26.540Z,11.30
2019-04-30T03:43:03.177Z,11.30
2019-04-30T03:45:40.257Z,11.30
2019-04-30T03:48:16.040Z,11.20
2019-04-30T03:50:56.642Z,11.20
2019-04-30T03:53:29.829Z,11.30
2019-04-30T03:56:05.332Z,11.30
2019-04-30T03:58:40.800Z,11.30
2019-04-30T04:01:29.727Z,11.40
2019-04-30T04:04:24.035Z,11.30
2019-04-30T04:07:16.206Z,11.30
2019-04-30T04:09:59.911Z,11.30
2019-04-30T04:12:35.421Z,11.30
2019-04-30T04:15:11.011Z,11.30
2019-04-30T04:17:46.449Z,11.20
2019-04-30T04:20:21.899Z,11.30
2019-04-30T04:22:59.680Z,11.30
2019-04-30T04:25:34.412Z,11.20
2019-04-30T04:28:10.204Z,11.20
2019-04-30T04:31:00.133Z,11.10
2019-04-30T04:33:39.559Z,11.10
2019-04-30T04:36:14.351Z,11.20
2019-04-30T04:38:50.723Z,11.20
2019-04-30T04:41:26.270Z,11.20
2019-04-30T04:44:01.797Z,11.20
2019-04-30T04:46:40.063Z,11.20
2019-04-30T04:49:14.440Z,11.20
2019-04-30T04:51:49.751Z,11.20
2019-04-30T04:54:25.088Z,11.20
2019-04-30T04:57:14.023Z,11.20
2019-04-30T04:59:39.382Z,11.20
2019-04-30T05:02:51.519Z,11.20
2019-04-30T05:05:26.841Z,11.30
2019-04-30T05:08:02.259Z,11.30
2019-04-30T05:10:39.207Z,11.30
2019-04-30T05:13:14.737Z,11.20
2019-04-30T05:15:51.578Z,11.20
2019-04-30T05:18:28.997Z,11.20
2019-04-30T05:21:04.037Z,11.30
2019-04-30T05:23:42.369Z,11.30
2019-04-30T05:26:16.368Z,11.30
2019-04-30T05:28:52.973Z,11.20
2019-04-30T05:31:28.958Z,11.30
2019-04-30T05:34:06.397Z,11.30
2019-04-30T05:36:41.603Z,11.30
2019-04-30T05:39:18.739Z,11.30
2019-04-30T05:41:53.978Z,11.30
2019-04-30T05:44:29.816Z,11.40
2019-04-30T05:47:06.218Z,11.40
2019-04-30T05:49:41.610Z,11.40
2019-04-30T05:52:19.928Z,11.40
2019-04-30T05:54:55.040Z,11.40
2019-04-30T05:57:30.551Z,11.40
2019-04-30T06:00:07.104Z,11.40
2019-04-30T06:02:42.724Z,11.50
2019-04-30T06:05:18.794Z,11.40
2019-04-30T06:07:55.476Z,11.50
2019-04-30T06:10:49.578Z,11.40
2019-04-30T06:13:28.803Z,11.50
2019-04-30T06:16:16.192Z,11.50
2019-04-30T06:18:52.598Z,11.50
2019-04-30T06:21:29.474Z,11.60
2019-04-30T06:24:04.945Z,11.60
2019-04-30T06:26:50.100Z,11.70
2019-04-30T06:29:25.655Z,11.70
2019-04-30T06:32:01.292Z,11.70
2019-04-30T06:34:39.473Z,11.70
2019-04-30T06:37:14.387Z,11.70
2019-04-30T06:39:50.185Z,11.70
2019-04-30T06:42:25.655Z,11.70
2019-04-30T06:45:01.517Z,11.70
2019-04-30T06:47:38.904Z,11.70
2019-04-30T06:50:15.201Z,11.80
2019-04-30T06:52:56.743Z,11.80
2019-04-30T06:55:30.641Z,12.00
2019-04-30T06:58:14.164Z,12.00
2019-04-30T07:00:42.790Z,12.10
2019-04-30T07:03:19.161Z,12.20
2019-04-30T07:05:54.794Z,12.30
2019-04-30T07:08:57.032Z,12.30
2019-04-30T07:11:35.594Z,12.30
2019-04-30T07:14:10.949Z,12.30
2019-04-30T07:16:46.395Z,12.30
2019-04-30T07:19:31.981Z,12.30
2019-04-30T07:22:01.538Z,12.40
2019-04-30T07:24:36.948Z,12.50
2019-04-30T07:27:12.476Z,12.50
2019-04-30T07:29:49.510Z,12.50
2019-04-30T07:32:25.067Z,12.40
2019-04-30T07:35:00.554Z,12.50
2019-04-30T07:37:35.937Z,12.50
2019-04-30T07:40:11.676Z,12.60
2019-04-30T07:42:49.006Z,12.70
2019-04-30T07:45:25.713Z,12.80
2019-04-30T07:48:01.445Z,12.70
2019-04-30T07:50:37.479Z,12.90
2019-04-30T07:53:13.958Z,12.80
2019-04-30T07:55:49.543Z,12.90
2019-04-30T07:58:25.023Z,13.00
2019-04-30T08:01:00.539Z,13.10
2019-04-30T08:04:12.976Z,13.10
2019-04-30T08:06:49.914Z,13.30
2019-04-30T08:09:25.412Z,13.30
2019-04-30T08:12:00.829Z,13.40
2019-04-30T08:14:36.443Z,13.40
2019-04-30T08:17:11.895Z,13.20
2019-04-30T08:19:48.956Z,13.10
2019-04-30T08:22:24.606Z,13.10
2019-04-30T08:25:00.050Z,13.10
2019-04-30T08:27:35.433Z,13.00
2019-04-30T08:30:22.899Z,13.10
2019-04-30T08:32:49.964Z,13.00
2019-04-30T08:35:25.202Z,13.20
2019-04-30T08:38:00.650Z,13.30
2019-04-30T08:40:36.056Z,13.30
2019-04-30T08:43:11.611Z,13.40
2019-04-30T08:45:48.868Z,13.50
2019-04-30T08:48:24.342Z,13.80
2019-04-30T08:50:59.837Z,14.30
2019-04-30T08:53:36.222Z,14.50
2019-04-30T08:56:11.655Z,14.40
2019-04-30T08:58:48.939Z,14.30
2019-04-30T09:01:24.235Z,14.30
2019-04-30T09:03:59.886Z,14.20
2019-04-30T09:06:38.491Z,14.30
2019-04-30T09:09:18.611Z,14.30
2019-04-30T09:11:55.754Z,14.20
2019-04-30T09:14:30.548Z,14.10
2019-04-30T09:17:06.023Z,14.10
2019-04-30T09:19:41.537Z,14.40
2019-04-30T09:22:17.040Z,14.60
2019-04-30T09:24:52.357Z,14.70
2019-04-30T09:27:29.665Z,14.80
2019-04-30T09:30:05.459Z,14.80
2019-04-30T09:32:40.965Z,14.80
2019-04-30T09:35:16.347Z,15.00
2019-04-30T09:37:58.930Z,15.20
2019-04-30T09:40:32.176Z,15.20
2019-04-30T09:43:06.033Z,15.30
2019-04-30T09:45:41.379Z,15.30
2019-04-30T09:48:18.815Z,15.50
2019-04-30T09:50:54.079Z,15.50
2019-04-30T09:53:31.779Z,15.70
2019-04-30T09:56:09.428Z,16.00
2019-04-30T09:58:44.410Z,16.40
2019-04-30T10:01:22.013Z,16.50
2019-04-30T10:03:59.376Z,16.20
2019-04-30T10:06:39.698Z,16.10
2019-04-30T10:09:13.435Z,15.70
2019-04-30T10:11:54.382Z,15.60
2019-04-30T10:14:29.810Z,15.30
2019-04-30T10:17:27.006Z,15.40
2019-04-30T10:20:02.449Z,15.30
2019-04-30T10:22:39.889Z,15.60
2019-04-30T10:25:15.199Z,15.50
2019-04-30T10:27:51.275Z,15.40
2019-04-30T10:30:30.804Z,15.20
2019-04-30T10:33:06.727Z,15.20
2019-04-30T10:35:42.227Z,15.70
2019-04-30T10:38:19.385Z,16.20
2019-04-30T10:40:54.600Z,15.90
2019-04-30T10:43:32.050Z,16.00
2019-04-30T10:46:07.319Z,16.10
2019-04-30T10:48:43.436Z,15.90
2019-04-30T10:51:20.141Z,16.00
2019-04-30T10:53:55.509Z,16.00
2019-04-30T10:56:30.979Z,16.20
2019-04-30T10:59:06.435Z,16.40
2019-04-30T11:01:41.809Z,16.40
2019-04-30T11:04:19.263Z,16.60
2019-04-30T11:06:54.719Z,16.50
2019-04-30T11:09:31.035Z,16.60
2019-04-30T11:12:07.085Z,16.70
2019-04-30T11:14:42.787Z,16.90
2019-04-30T11:17:19.741Z,17.20
2019-04-30T11:19:56.483Z,17.40
2019-04-30T11:22:32.049Z,17.50
2019-04-30T11:25:09.765Z,17.40
2019-04-30T11:27:45.124Z,17.30
2019-04-30T11:30:24.390Z,16.90
2019-04-30T11:32:58.961Z,17.20
2019-04-30T11:35:34.632Z,17.20
2019-04-30T11:38:10.379Z,17.20
2019-04-30T11:40:48.586Z,17.20
2019-04-30T11:43:24.014Z,17.10
2019-04-30T11:46:28.555Z,17.10
2019-04-30T11:49:03.687Z,17.20
2019-04-30T11:51:39.322Z,17.30
2019-04-30T11:54:14.940Z,17.40
2019-04-30T11:56:50.518Z,17.30
2019-04-30T11:59:26.120Z,17.30
2019-04-30T12:02:03.413Z,17.40
2019-04-30T12:04:39.361Z,17.40
2019-04-30T12:07:21.642Z,17.40
2019-04-30T12:10:19.435Z,17.60
2019-04-30T12:12:54.855Z,17.60
2019-04-30T12:15:30.289Z,17.40
2019-04-30T12:18:05.787Z,17.80
2019-04-30T12:20:41.205Z,18.00
2019-04-30T12:23:16.667Z,18.10
2019-04-30T12:25:52.014Z,18.20
2019-04-30T12:28:27.965Z,18.10
2019-04-30T12:31:05.998Z,18.20
2019-04-30T12:33:42.507Z,18.20
2019-04-30T12:36:18.891Z,18.40
2019-04-30T12:38:54.317Z,18.40
2019-04-30T12:41:29.644Z,18.60
2019-04-30T12:44:05.075Z,18.50
2019-04-30T12:46:40.478Z,18.10
2019-04-30T12:49:15.925Z,17.80
2019-04-30T12:52:22.187Z,17.90
2019-04-30T12:55:01.829Z,18.10
2019-04-30T12:57:58.303Z,18.30
2019-04-30T13:00:29.373Z,18.40
2019-04-30T13:03:05.028Z,18.50
2019-04-30T13:05:40.434Z,18.20
2019-04-30T13:08:16.558Z,18.30
2019-04-30T13:10:52.939Z,18.40
2019-04-30T13:13:31.463Z,18.50
2019-04-30T13:16:05.700Z,18.60
2019-04-30T13:18:41.354Z,18.70
2019-04-30T13:21:18.368Z,18.60
2019-04-30T13:23:53.930Z,18.60
2019-04-30T13:26:29.271Z,18.60
2019-04-30T13:29:18.443Z,18.50
2019-04-30T13:31:53.866Z,18.60
2019-04-30T13:35:00.996Z,18.50
2019-04-30T13:37:43.337Z,18.50
2019-04-30T13:40:39.056Z,18.60
2019-04-30T13:43:15.083Z,18.60
2019-04-30T13:45:51.874Z,18.90
2019-04-30T13:48:27.325Z,18.80
2019-04-30T13:51:02.711Z,18.90
2019-04-30T13:53:39.509Z,18.80
2019-04-30T13:56:15.243Z,18.60
2019-04-30T13:58:50.744Z,18.40
2019-04-30T14:01:26.401Z,18.60
2019-04-30T14:04:23.491Z,18.60
2019-04-30T14:07:17.843Z,18.80
2019-04-30T14:09:53.331Z,18.90
2019-04-30T14:12:30.426Z,19.20
2019-04-30T14:15:06.297Z,19.10
2019-04-30T14:17:41.923Z,19.00
2019-04-30T14:20:17.465Z,18.90
2019-04-30T14:22:52.931Z,18.90
2019-04-30T14:25:29.017Z,19.00
2019-04-30T14:28:04.431Z,18.90
2019-04-30T14:30:39.850Z,19.10
2019-04-30T14:33:25.575Z,19.10
2019-04-30T14:35:52.308Z,19.10
2019-04-30T14:38:27.801Z,19.10
2019-04-30T14:41:03.904Z,19.10
2019-04-30T14:43:48.353Z,19.00
2019-04-30T14:46:43.810Z,19.00
2019-04-30T14:49:56.451Z,19.00
2019-04-30T14:52:22.948Z,19.00
2019-04-30T14:55:18.763Z,19.20
2019-04-30T14:58:13.354Z,19.30
2019-04-30T15:00:59.335Z,19.10
2019-04-30T15:03:34.939Z,18.80
2019-04-30T15:06:10.435Z,18.70
2019-04-30T15:08:46.130Z,18.50
2019-04-30T15:11:21.554Z,19.00
2019-04-30T15:13:59.027Z,18.90
2019-04-30T15:16:34.120Z,18.90
2019-04-30T15:19:09.565Z,19.00
2019-04-30T15:21:44.924Z,18.90
2019-04-30T15:24:35.233Z,18.80
2019-04-30T15:27:10.657Z,18.60
2019-04-30T15:29:45.958Z,18.50
2019-04-30T15:32:21.463Z,18.30
2019-04-30T15:34:58.772Z,18.40
2019-04-30T15:37:33.832Z,18.30
2019-04-30T15:40:09.317Z,18.20
2019-04-30T15:42:46.549Z,18.10
2019-04-30T15:45:23.061Z,18.00
2019-04-30T15:47:58.578Z,17.90
2019-04-30T15:50:33.983Z,17.80
2019-04-30T15:53:09.745Z,17.80
2019-04-30T15:55:45.149Z,17.80
2019-04-30T15:58:24.822Z,17.70
2019-04-30T16:01:00.260Z,17.60
2019-04-30T16:03:36.944Z,17.50
2019-04-30T16:06:21.227Z,17.40
2019-04-30T16:08:58.650Z,17.40
2019-04-30T16:11:49.346Z,17.40
2019-04-30T16:14:30.965Z,17.30
2019-04-30T16:17:14.525Z,17.30
2019-04-30T16:19:50.073Z,17.10
2019-04-30T16:22:25.440Z,17.00
2019-04-30T16:25:00.939Z,16.80
2019-04-30T16:27:36.348Z,16.70
2019-04-30T16:30:11.860Z,16.60
2019-04-30T16:32:50.476Z,16.30
2019-04-30T16:35:24.538Z,16.20
2019-04-30T16:37:59.970Z,16.10
2019-04-30T16:40:38.637Z,15.90
2019-04-30T16:43:14.161Z,15.90
2019-04-30T16:45:49.808Z,15.90
2019-04-30T16:48:25.271Z,15.80
2019-04-30T16:51:00.928Z,15.80
2019-04-30T16:53:36.220Z,15.70
2019-04-30T16:56:11.675Z,15.70
2019-04-30T16:58:59.393Z,15.70
2019-04-30T17:01:36.107Z,15.70
2019-04-30T17:04:20.485Z,15.60
2019-04-30T17:07:11.913Z,15.50
2019-04-30T17:10:09.036Z,15.40
2019-04-30T17:13:00.705Z,15.40
2019-04-30T17:15:36.997Z,15.30
2019-04-30T17:18:12.393Z,15.20
2019-04-30T17:20:49.093Z,15.10
2019-04-30T17:23:25.877Z,15.00
2019-04-30T17:26:01.190Z,14.80
2019-04-30T17:28:38.484Z,14.80
2019-04-30T17:31:13.779Z,14.80
2019-04-30T17:33:49.194Z,14.70
2019-04-30T17:36:24.669Z,14.60
2019-04-30T17:39:00.164Z,14.50
2019-04-30T17:41:37.143Z,14.40
2019-04-30T17:44:12.512Z,14.40
2019-04-30T17:46:49.725Z,14.40
2019-04-30T17:49:24.952Z,14.40
2019-04-30T17:52:00.342Z,14.30
2019-04-30T17:54:35.818Z,14.20
2019-04-30T17:57:11.212Z,14.20
2019-04-30T17:59:46.598Z,14.10
2019-04-30T18:02:23.482Z,14.10
2019-04-30T18:04:58.870Z,14.00
2019-04-30T18:07:34.274Z,14.00
2019-04-30T18:10:12.253Z,13.90
2019-04-30T18:12:47.796Z,13.80
2019-04-30T18:15:23.268Z,13.80
2019-04-30T18:18:29.883Z,13.70
2019-04-30T18:21:24.351Z,13.60
2019-04-30T18:24:30.910Z,13.60
2019-04-30T18:27:13.199Z,13.50
2019-04-30T18:29:48.460Z,13.50
2019-04-30T18:32:25.856Z,13.40
2019-04-30T18:35:01.319Z,13.40
2019-04-30T18:37:38.611Z,13.30
2019-04-30T18:40:13.886Z,13.30
2019-04-30T18:42:49.518Z,13.20
2019-04-30T18:45:24.935Z,13.20
2019-04-30T18:48:01.719Z,13.10
2019-04-30T18:50:37.249Z,13.10
2019-04-30T18:53:18.527Z,13.00
2019-04-30T18:55:53.907Z,12.90
2019-04-30T18:58:39.244Z,12.90
2019-04-30T19:01:06.650Z,12.80
2019-04-30T19:03:43.664Z,12.80
2019-04-30T19:06:26.103Z,12.80
2019-04-30T19:09:29.713Z,12.70
2019-04-30T19:12:25.301Z,12.70
2019-04-30T19:15:48.598Z,12.70
2019-04-30T19:18:29.700Z,12.60
2019-04-30T19:21:06.507Z,12.50
2019-04-30T19:23:42.145Z,12.60
2019-04-30T19:26:19.018Z,12.50
2019-04-30T19:28:54.490Z,12.40
2019-04-30T19:31:30.080Z,12.40
2019-04-30T19:34:05.817Z,12.40
2019-04-30T19:36:44.223Z,12.40
2019-04-30T19:39:20.060Z,12.30
2019-04-30T19:41:55.475Z,12.30
2019-04-30T19:44:31.054Z,12.20
2019-04-30T19:47:06.570Z,12.10
2019-04-30T19:49:42.130Z,12.10
2019-04-30T19:52:19.266Z,12.10
2019-04-30T19:54:58.883Z,12.10
2019-04-30T19:57:34.339Z,12.10
2019-04-30T20:00:09.843Z,12.00
2019-04-30T20:02:45.483Z,12.00
2019-04-30T20:05:21.017Z,11.90
2019-04-30T20:07:56.430Z,11.80
2019-04-30T20:10:31.942Z,11.70
2019-04-30T20:13:07.346Z,11.70
2019-04-30T20:15:42.909Z,11.70
2019-04-30T20:18:19.102Z,11.70
2019-04-30T20:20:56.276Z,11.60
2019-04-30T20:23:31.720Z,11.60
2019-04-30T20:26:07.323Z,11.50
2019-04-30T20:28:42.770Z,11.30
2019-04-30T20:31:19.017Z,11.30
2019-04-30T20:33:54.537Z,11.40
2019-04-30T20:36:32.252Z,11.30
2019-04-30T20:39:18.253Z,11.30
2019-04-30T20:41:54.216Z,11.20
2019-04-30T20:44:29.674Z,11.20
2019-04-30T20:47:05.329Z,11.20
2019-04-30T20:49:40.690Z,11.10
2019-04-30T20:52:16.075Z,10.90
2019-04-30T20:54:51.779Z,10.90
2019-04-30T20:57:27.160Z,10.80
2019-04-30T21:00:04.100Z,10.90
2019-04-30T21:02:41.249Z,10.80
2019-04-30T21:05:16.815Z,10.80
2019-04-30T21:07:52.182Z,10.70
2019-04-30T21:10:29.251Z,10.70
2019-04-30T21:13:04.817Z,10.70
2019-04-30T21:15:40.264Z,10.60
2019-04-30T21:18:16.059Z,10.60
2019-04-30T21:20:51.517Z,10.50
2019-04-30T21:23:26.993Z,10.50
2019-04-30T21:26:08.426Z,10.50
2019-04-30T21:28:43.721Z,10.50
2019-04-30T21:31:46.885Z,10.50
2019-04-30T21:34:41.827Z,10.40
2019-04-30T21:37:17.230Z,10.40
2019-04-30T21:39:52.607Z,10.30
2019-04-30T21:42:28.082Z,10.30
2019-04-30T21:45:03.671Z,10.30
2019-04-30T21:47:39.046Z,10.30
2019-04-30T21:50:15.092Z,10.20
2019-04-30T21:52:50.549Z,10.10
2019-04-30T21:55:25.955Z,10.20
2019-04-30T21:58:01.590Z,10.10
2019-04-30T22:01:04.732Z,10.10
2019-04-30T22:03:42.343Z,10.10
2019-04-30T22:06:19.471Z,10.00
2019-04-30T22:08:55.016Z,10.00
2019-04-30T22:11:30.451Z,10.00
2019-04-30T22:14:06.067Z,9.90
2019-04-30T22:16:41.494Z,9.90
2019-04-30T22:19:16.864Z,9.90
2019-04-30T22:21:52.304Z,9.90
2019-04-30T22:24:28.285Z,9.80
2019-04-30T22:27:04.708Z,9.70
2019-04-30T22:29:42.287Z,9.80
2019-04-30T22:32:16.961Z,9.80
2019-04-30T22:34:53.918Z,9.80
2019-04-30T22:37:29.295Z,9.70
2019-04-30T22:40:06.165Z,9.70
2019-04-30T22:42:41.515Z,9.70
2019-04-30T22:45:34.311Z,9.70
2019-04-30T22:48:09.662Z,9.70
2019-04-30T22:50:45.104Z,9.60
2019-04-30T22:53:20.613Z,9.60
2019-04-30T22:55:56.012Z,9.50
2019-04-30T22:58:31.412Z,9.50
2019-04-30T23:01:21.331Z,9.50
2019-04-30T23:04:00.746Z,9.50
2019-04-30T23:06:36.144Z,9.50
2019-04-30T23:09:13.280Z,9.40
2019-04-30T23:11:49.198Z,9.30
2019-04-30T23:14:24.603Z,9.40
2019-04-30T23:17:01.674Z,9.30
2019-04-30T23:19:37.183Z,9.20
2019-04-30T23:22:12.748Z,9.20
2019-04-30T23:24:50.631Z,9.10
2019-04-30T23:27:26.758Z,9.10
2019-04-30T23:30:03.414Z,9.00
2019-04-30T23:32:39.516Z,9.00
2019-04-30T23:35:15.080Z,9.10
2019-04-30T23:37:50.427Z,9.00
2019-04-30T23:40:29.551Z,9.00
2019-04-30T23:43:05.101Z,8.90
2019-04-30T23:45:40.643Z,8.80
2019-04-30T23:48:18.187Z,8.70
2019-04-30T23:50:57.623Z,8.80
2019-04-30T23:53:33.402Z,8.80
2019-04-30T23:56:08.794Z,8.80
2019-04-30T23:58:44.395Z,8.80
